sensor_id;sensor_type;location;lat;lon;timestamp;P1;durP1;ratioP1;P2;durP2;ratioP2
78856;SDS011;68207;50.078;19.936;2023-07-29T00:01:00;5.40;;;3.80;;
78856;SDS011;68207;50.078;19.936;2023-07-29T00:03:26;6.80;;;4.00;;
78856;SDS011;68207;50.078;19.936;2023-07-29T00:05:51;6.90;;;4.80;;
78856;SDS011;68207;50.078;19.936;2023-07-29T00:08:16;7.50;;;4.30;;
78856;SDS011;68207;50.078;19.936;2023-07-29T00:10:41;6.00;;;4.10;;
78856;SDS011;68207;50.078;19.936;2023-07-29T00:13:06;5.40;;;3.70;;
78856;SDS011;68207;50.078;19.936;2023-07-29T00:15:32;7.00;;;3.90;;
78856;SDS011;68207;50.078;19.936;2023-07-29T00:17:57;6.10;;;4.40;;
78856;SDS011;68207;50.078;19.936;2023-07-29T00:20:22;7.40;;;4.50;;
78856;SDS011;68207;50.078;19.936;2023-07-29T00:22:47;6.60;;;4.20;;
78856;SDS011;68207;50.078;19.936;2023-07-29T00:25:15;6.30;;;4.40;;
78856;SDS011;68207;50.078;19.936;2023-07-29T00:27:40;6.30;;;4.30;;
78856;SDS011;68207;50.078;19.936;2023-07-29T00:30:05;6.40;;;4.40;;
78856;SDS011;68207;50.078;19.936;2023-07-29T00:32:31;7.40;;;4.30;;
78856;SDS011;68207;50.078;19.936;2023-07-29T00:34:56;5.90;;;4.00;;
78856;SDS011;68207;50.078;19.936;2023-07-29T00:37:21;7.20;;;4.10;;
78856;SDS011;68207;50.078;19.936;2023-07-29T00:39:46;5.50;;;3.90;;
78856;SDS011;68207;50.078;19.936;2023-07-29T00:42:11;8.00;;;4.50;;
78856;SDS011;68207;50.078;19.936;2023-07-29T00:44:37;7.30;;;4.20;;
78856;SDS011;68207;50.078;19.936;2023-07-29T00:47:02;7.40;;;4.40;;
78856;SDS011;68207;50.078;19.936;2023-07-29T00:49:27;6.20;;;4.20;;
78856;SDS011;68207;50.078;19.936;2023-07-29T00:51:53;8.70;;;4.80;;
78856;SDS011;68207;50.078;19.936;2023-07-29T00:54:18;6.50;;;4.10;;
78856;SDS011;68207;50.078;19.936;2023-07-29T00:56:43;8.20;;;4.60;;
78856;SDS011;68207;50.078;19.936;2023-07-29T00:59:08;7.00;;;4.70;;
78856;SDS011;68207;50.078;19.936;2023-07-29T01:01:34;5.80;;;4.30;;
78856;SDS011;68207;50.078;19.936;2023-07-29T01:03:59;6.40;;;4.30;;
78856;SDS011;68207;50.078;19.936;2023-07-29T01:06:41;5.90;;;4.20;;
78856;SDS011;68207;50.078;19.936;2023-07-29T01:09:28;6.20;;;3.90;;
78856;SDS011;68207;50.078;19.936;2023-07-29T01:11:57;5.10;;;4.20;;
78856;SDS011;68207;50.078;19.936;2023-07-29T01:14:34;6.40;;;4.00;;
78856;SDS011;68207;50.078;19.936;2023-07-29T01:17:03;6.40;;;3.60;;
78856;SDS011;68207;50.078;19.936;2023-07-29T01:19:36;5.30;;;3.90;;
78856;SDS011;68207;50.078;19.936;2023-07-29T01:22:06;4.80;;;3.60;;
78856;SDS011;68207;50.078;19.936;2023-07-29T01:39:05;5.40;;;3.90;;
78856;SDS011;68207;50.078;19.936;2023-07-29T01:41:30;5.60;;;4.10;;
78856;SDS011;68207;50.078;19.936;2023-07-29T01:43:56;9.30;;;4.30;;
78856;SDS011;68207;50.078;19.936;2023-07-29T01:46:21;7.60;;;4.10;;
78856;SDS011;68207;50.078;19.936;2023-07-29T01:48:46;7.00;;;4.60;;
78856;SDS011;68207;50.078;19.936;2023-07-29T01:51:12;8.30;;;4.70;;
78856;SDS011;68207;50.078;19.936;2023-07-29T01:53:37;6.90;;;4.30;;
78856;SDS011;68207;50.078;19.936;2023-07-29T01:56:02;7.30;;;4.70;;
78856;SDS011;68207;50.078;19.936;2023-07-29T01:58:28;7.40;;;4.60;;
78856;SDS011;68207;50.078;19.936;2023-07-29T02:00:53;6.50;;;4.40;;
78856;SDS011;68207;50.078;19.936;2023-07-29T02:03:18;6.50;;;4.10;;
78856;SDS011;68207;50.078;19.936;2023-07-29T02:05:43;5.70;;;4.10;;
78856;SDS011;68207;50.078;19.936;2023-07-29T02:08:09;5.10;;;3.90;;
78856;SDS011;68207;50.078;19.936;2023-07-29T02:10:34;7.00;;;4.40;;
78856;SDS011;68207;50.078;19.936;2023-07-29T02:12:59;6.30;;;4.40;;
78856;SDS011;68207;50.078;19.936;2023-07-29T02:15:25;6.10;;;4.00;;
78856;SDS011;68207;50.078;19.936;2023-07-29T02:17:50;8.70;;;4.30;;
78856;SDS011;68207;50.078;19.936;2023-07-29T02:20:16;7.50;;;4.40;;
78856;SDS011;68207;50.078;19.936;2023-07-29T02:22:42;6.70;;;4.20;;
78856;SDS011;68207;50.078;19.936;2023-07-29T02:25:07;6.70;;;3.70;;
78856;SDS011;68207;50.078;19.936;2023-07-29T02:27:32;6.10;;;4.00;;
78856;SDS011;68207;50.078;19.936;2023-07-29T02:29:58;5.20;;;3.70;;
78856;SDS011;68207;50.078;19.936;2023-07-29T02:32:23;8.40;;;4.60;;
78856;SDS011;68207;50.078;19.936;2023-07-29T02:34:49;5.70;;;3.90;;
78856;SDS011;68207;50.078;19.936;2023-07-29T02:37:14;6.90;;;4.00;;
78856;SDS011;68207;50.078;19.936;2023-07-29T02:39:39;5.10;;;4.10;;
78856;SDS011;68207;50.078;19.936;2023-07-29T02:42:04;5.30;;;3.80;;
78856;SDS011;68207;50.078;19.936;2023-07-29T02:44:30;5.00;;;3.90;;
78856;SDS011;68207;50.078;19.936;2023-07-29T02:46:55;5.50;;;3.70;;
78856;SDS011;68207;50.078;19.936;2023-07-29T02:49:21;7.00;;;4.00;;
78856;SDS011;68207;50.078;19.936;2023-07-29T02:51:46;5.30;;;4.50;;
78856;SDS011;68207;50.078;19.936;2023-07-29T02:54:11;5.70;;;4.30;;
78856;SDS011;68207;50.078;19.936;2023-07-29T02:56:36;6.20;;;3.80;;
78856;SDS011;68207;50.078;19.936;2023-07-29T02:59:01;7.00;;;4.80;;
78856;SDS011;68207;50.078;19.936;2023-07-29T03:01:27;6.00;;;4.40;;
78856;SDS011;68207;50.078;19.936;2023-07-29T03:03:52;7.10;;;4.20;;
78856;SDS011;68207;50.078;19.936;2023-07-29T03:06:17;5.80;;;3.60;;
78856;SDS011;68207;50.078;19.936;2023-07-29T03:08:43;6.70;;;4.40;;
78856;SDS011;68207;50.078;19.936;2023-07-29T03:11:15;6.70;;;4.20;;
78856;SDS011;68207;50.078;19.936;2023-07-29T03:13:40;5.00;;;4.00;;
78856;SDS011;68207;50.078;19.936;2023-07-29T03:16:10;8.90;;;4.40;;
78856;SDS011;68207;50.078;19.936;2023-07-29T03:18:35;8.40;;;4.80;;
78856;SDS011;68207;50.078;19.936;2023-07-29T03:21:01;7.00;;;4.50;;
78856;SDS011;68207;50.078;19.936;2023-07-29T03:23:27;6.50;;;4.20;;
78856;SDS011;68207;50.078;19.936;2023-07-29T03:25:52;5.80;;;4.50;;
78856;SDS011;68207;50.078;19.936;2023-07-29T03:28:21;7.00;;;4.20;;
78856;SDS011;68207;50.078;19.936;2023-07-29T03:30:47;6.60;;;4.30;;
78856;SDS011;68207;50.078;19.936;2023-07-29T03:33:12;7.20;;;4.80;;
78856;SDS011;68207;50.078;19.936;2023-07-29T03:35:37;5.30;;;4.00;;
78856;SDS011;68207;50.078;19.936;2023-07-29T03:38:02;7.50;;;4.30;;
78856;SDS011;68207;50.078;19.936;2023-07-29T03:40:27;7.90;;;4.30;;
78856;SDS011;68207;50.078;19.936;2023-07-29T03:42:52;6.60;;;4.50;;
78856;SDS011;68207;50.078;19.936;2023-07-29T03:45:17;6.30;;;4.40;;
78856;SDS011;68207;50.078;19.936;2023-07-29T03:47:43;7.40;;;4.40;;
78856;SDS011;68207;50.078;19.936;2023-07-29T03:50:08;6.30;;;4.50;;
78856;SDS011;68207;50.078;19.936;2023-07-29T03:52:33;7.80;;;4.60;;
78856;SDS011;68207;50.078;19.936;2023-07-29T03:54:58;6.90;;;4.20;;
78856;SDS011;68207;50.078;19.936;2023-07-29T03:57:24;7.90;;;5.30;;
78856;SDS011;68207;50.078;19.936;2023-07-29T03:59:49;6.90;;;4.90;;
78856;SDS011;68207;50.078;19.936;2023-07-29T04:02:14;6.60;;;4.90;;
78856;SDS011;68207;50.078;19.936;2023-07-29T04:04:39;9.30;;;5.00;;
78856;SDS011;68207;50.078;19.936;2023-07-29T04:07:06;7.80;;;4.30;;
78856;SDS011;68207;50.078;19.936;2023-07-29T04:09:32;10.10;;;4.90;;
78856;SDS011;68207;50.078;19.936;2023-07-29T04:11:57;8.90;;;4.80;;
78856;SDS011;68207;50.078;19.936;2023-07-29T04:14:22;6.20;;;4.50;;
78856;SDS011;68207;50.078;19.936;2023-07-29T04:16:48;7.00;;;4.60;;
78856;SDS011;68207;50.078;19.936;2023-07-29T04:19:14;7.20;;;5.00;;
78856;SDS011;68207;50.078;19.936;2023-07-29T04:21:39;10.10;;;4.70;;
78856;SDS011;68207;50.078;19.936;2023-07-29T04:24:04;6.60;;;4.20;;
78856;SDS011;68207;50.078;19.936;2023-07-29T04:26:29;7.80;;;4.90;;
78856;SDS011;68207;50.078;19.936;2023-07-29T04:28:54;8.00;;;5.20;;
78856;SDS011;68207;50.078;19.936;2023-07-29T04:31:20;8.50;;;4.70;;
78856;SDS011;68207;50.078;19.936;2023-07-29T04:33:45;8.00;;;4.50;;
78856;SDS011;68207;50.078;19.936;2023-07-29T04:36:10;6.30;;;4.90;;
78856;SDS011;68207;50.078;19.936;2023-07-29T04:38:36;8.80;;;5.00;;
78856;SDS011;68207;50.078;19.936;2023-07-29T04:41:02;6.30;;;4.10;;
78856;SDS011;68207;50.078;19.936;2023-07-29T04:43:27;6.60;;;4.50;;
78856;SDS011;68207;50.078;19.936;2023-07-29T04:45:53;7.80;;;5.20;;
78856;SDS011;68207;50.078;19.936;2023-07-29T04:48:18;10.90;;;5.40;;
78856;SDS011;68207;50.078;19.936;2023-07-29T04:50:43;7.60;;;5.00;;
78856;SDS011;68207;50.078;19.936;2023-07-29T04:53:09;8.90;;;5.20;;
78856;SDS011;68207;50.078;19.936;2023-07-29T04:55:34;8.50;;;5.40;;
78856;SDS011;68207;50.078;19.936;2023-07-29T04:57:59;6.70;;;4.80;;
78856;SDS011;68207;50.078;19.936;2023-07-29T05:00:25;10.30;;;5.80;;
78856;SDS011;68207;50.078;19.936;2023-07-29T05:02:50;8.70;;;5.60;;
78856;SDS011;68207;50.078;19.936;2023-07-29T05:05:15;7.90;;;5.60;;
78856;SDS011;68207;50.078;19.936;2023-07-29T05:07:40;7.70;;;5.00;;
78856;SDS011;68207;50.078;19.936;2023-07-29T05:10:06;7.90;;;5.20;;
78856;SDS011;68207;50.078;19.936;2023-07-29T05:12:31;8.60;;;4.90;;
78856;SDS011;68207;50.078;19.936;2023-07-29T05:14:57;8.30;;;5.80;;
78856;SDS011;68207;50.078;19.936;2023-07-29T05:17:22;7.70;;;5.30;;
78856;SDS011;68207;50.078;19.936;2023-07-29T05:19:48;11.40;;;5.80;;
78856;SDS011;68207;50.078;19.936;2023-07-29T05:22:13;8.00;;;5.30;;
78856;SDS011;68207;50.078;19.936;2023-07-29T05:24:38;8.50;;;5.70;;
78856;SDS011;68207;50.078;19.936;2023-07-29T05:27:03;9.60;;;5.70;;
78856;SDS011;68207;50.078;19.936;2023-07-29T05:29:28;9.30;;;5.60;;
78856;SDS011;68207;50.078;19.936;2023-07-29T05:31:53;8.70;;;5.70;;
78856;SDS011;68207;50.078;19.936;2023-07-29T05:34:19;6.60;;;4.70;;
78856;SDS011;68207;50.078;19.936;2023-07-29T05:36:44;7.80;;;4.70;;
78856;SDS011;68207;50.078;19.936;2023-07-29T05:39:09;7.10;;;4.60;;
78856;SDS011;68207;50.078;19.936;2023-07-29T05:41:34;7.50;;;4.90;;
78856;SDS011;68207;50.078;19.936;2023-07-29T05:43:59;9.80;;;5.70;;
78856;SDS011;68207;50.078;19.936;2023-07-29T05:46:25;8.40;;;4.70;;
78856;SDS011;68207;50.078;19.936;2023-07-29T05:48:50;8.30;;;5.10;;
78856;SDS011;68207;50.078;19.936;2023-07-29T05:51:15;6.30;;;4.30;;
78856;SDS011;68207;50.078;19.936;2023-07-29T05:53:40;7.10;;;4.60;;
78856;SDS011;68207;50.078;19.936;2023-07-29T05:56:05;6.00;;;4.20;;
78856;SDS011;68207;50.078;19.936;2023-07-29T05:58:31;9.60;;;4.50;;
78856;SDS011;68207;50.078;19.936;2023-07-29T06:00:56;6.10;;;3.80;;
78856;SDS011;68207;50.078;19.936;2023-07-29T06:03:21;5.30;;;4.00;;
78856;SDS011;68207;50.078;19.936;2023-07-29T06:05:48;4.80;;;3.40;;
78856;SDS011;68207;50.078;19.936;2023-07-29T06:08:13;6.00;;;3.90;;
78856;SDS011;68207;50.078;19.936;2023-07-29T06:10:38;6.50;;;3.90;;
78856;SDS011;68207;50.078;19.936;2023-07-29T06:13:03;5.20;;;3.70;;
78856;SDS011;68207;50.078;19.936;2023-07-29T06:15:29;6.30;;;3.60;;
78856;SDS011;68207;50.078;19.936;2023-07-29T06:17:54;6.50;;;3.80;;
78856;SDS011;68207;50.078;19.936;2023-07-29T06:20:19;6.90;;;3.90;;
78856;SDS011;68207;50.078;19.936;2023-07-29T06:22:44;6.90;;;3.70;;
78856;SDS011;68207;50.078;19.936;2023-07-29T06:25:09;7.20;;;4.70;;
78856;SDS011;68207;50.078;19.936;2023-07-29T06:27:34;5.50;;;3.50;;
78856;SDS011;68207;50.078;19.936;2023-07-29T06:29:59;5.30;;;4.10;;
78856;SDS011;68207;50.078;19.936;2023-07-29T06:34:51;5.70;;;3.70;;
78856;SDS011;68207;50.078;19.936;2023-07-29T06:37:17;5.90;;;3.60;;
78856;SDS011;68207;50.078;19.936;2023-07-29T06:39:42;6.60;;;4.00;;
78856;SDS011;68207;50.078;19.936;2023-07-29T06:42:07;5.40;;;3.90;;
78856;SDS011;68207;50.078;19.936;2023-07-29T06:44:32;4.70;;;3.60;;
78856;SDS011;68207;50.078;19.936;2023-07-29T06:46:57;5.00;;;3.50;;
78856;SDS011;68207;50.078;19.936;2023-07-29T06:49:23;5.20;;;3.70;;
78856;SDS011;68207;50.078;19.936;2023-07-29T06:51:48;4.90;;;4.00;;
78856;SDS011;68207;50.078;19.936;2023-07-29T06:54:13;4.90;;;3.10;;
78856;SDS011;68207;50.078;19.936;2023-07-29T06:56:38;5.40;;;3.50;;
78856;SDS011;68207;50.078;19.936;2023-07-29T06:59:04;6.00;;;2.90;;
78856;SDS011;68207;50.078;19.936;2023-07-29T07:01:29;4.60;;;3.00;;
78856;SDS011;68207;50.078;19.936;2023-07-29T07:03:54;3.90;;;3.30;;
78856;SDS011;68207;50.078;19.936;2023-07-29T07:06:20;5.90;;;3.20;;
78856;SDS011;68207;50.078;19.936;2023-07-29T07:08:45;4.20;;;2.80;;
78856;SDS011;68207;50.078;19.936;2023-07-29T07:11:11;5.40;;;3.20;;
78856;SDS011;68207;50.078;19.936;2023-07-29T07:13:36;4.30;;;3.00;;
78856;SDS011;68207;50.078;19.936;2023-07-29T07:16:01;5.20;;;3.30;;
78856;SDS011;68207;50.078;19.936;2023-07-29T07:18:26;5.90;;;3.70;;
78856;SDS011;68207;50.078;19.936;2023-07-29T07:20:51;6.50;;;3.40;;
78856;SDS011;68207;50.078;19.936;2023-07-29T07:23:17;5.70;;;3.10;;
78856;SDS011;68207;50.078;19.936;2023-07-29T07:25:42;5.10;;;3.40;;
78856;SDS011;68207;50.078;19.936;2023-07-29T07:28:08;6.50;;;3.30;;
78856;SDS011;68207;50.078;19.936;2023-07-29T07:30:33;5.90;;;3.20;;
78856;SDS011;68207;50.078;19.936;2023-07-29T07:32:58;4.10;;;3.30;;
78856;SDS011;68207;50.078;19.936;2023-07-29T07:35:23;6.10;;;3.00;;
78856;SDS011;68207;50.078;19.936;2023-07-29T07:37:48;4.50;;;3.00;;
78856;SDS011;68207;50.078;19.936;2023-07-29T07:40:14;5.20;;;3.10;;
78856;SDS011;68207;50.078;19.936;2023-07-29T07:42:39;4.80;;;2.80;;
78856;SDS011;68207;50.078;19.936;2023-07-29T07:45:04;5.20;;;3.00;;
78856;SDS011;68207;50.078;19.936;2023-07-29T07:47:29;5.60;;;3.00;;
78856;SDS011;68207;50.078;19.936;2023-07-29T07:49:54;3.90;;;3.30;;
78856;SDS011;68207;50.078;19.936;2023-07-29T07:52:20;6.10;;;3.00;;
78856;SDS011;68207;50.078;19.936;2023-07-29T07:54:45;6.80;;;2.90;;
78856;SDS011;68207;50.078;19.936;2023-07-29T07:57:10;7.20;;;3.00;;
78856;SDS011;68207;50.078;19.936;2023-07-29T07:59:35;3.60;;;2.70;;
78856;SDS011;68207;50.078;19.936;2023-07-29T08:02:00;4.50;;;2.60;;
78856;SDS011;68207;50.078;19.936;2023-07-29T08:04:25;4.80;;;2.60;;
78856;SDS011;68207;50.078;19.936;2023-07-29T08:06:51;4.30;;;2.70;;
78856;SDS011;68207;50.078;19.936;2023-07-29T08:09:16;4.90;;;3.00;;
78856;SDS011;68207;50.078;19.936;2023-07-29T08:11:41;4.40;;;3.20;;
78856;SDS011;68207;50.078;19.936;2023-07-29T08:14:06;4.60;;;3.00;;
78856;SDS011;68207;50.078;19.936;2023-07-29T08:16:31;4.40;;;2.50;;
78856;SDS011;68207;50.078;19.936;2023-07-29T08:18:56;5.00;;;2.70;;
78856;SDS011;68207;50.078;19.936;2023-07-29T08:21:22;4.50;;;2.60;;
78856;SDS011;68207;50.078;19.936;2023-07-29T08:23:47;3.80;;;2.50;;
78856;SDS011;68207;50.078;19.936;2023-07-29T08:26:12;3.20;;;2.50;;
78856;SDS011;68207;50.078;19.936;2023-07-29T08:28:38;4.50;;;2.30;;
78856;SDS011;68207;50.078;19.936;2023-07-29T08:31:04;3.00;;;2.50;;
78856;SDS011;68207;50.078;19.936;2023-07-29T08:33:29;4.90;;;2.60;;
78856;SDS011;68207;50.078;19.936;2023-07-29T08:35:54;3.20;;;2.30;;
78856;SDS011;68207;50.078;19.936;2023-07-29T08:38:20;4.50;;;2.40;;
78856;SDS011;68207;50.078;19.936;2023-07-29T08:40:48;3.70;;;2.10;;
78856;SDS011;68207;50.078;19.936;2023-07-29T08:43:16;3.40;;;2.20;;
78856;SDS011;68207;50.078;19.936;2023-07-29T08:45:41;3.30;;;2.30;;
78856;SDS011;68207;50.078;19.936;2023-07-29T08:48:08;2.70;;;2.10;;
78856;SDS011;68207;50.078;19.936;2023-07-29T08:50:35;6.40;;;2.30;;
78856;SDS011;68207;50.078;19.936;2023-07-29T08:53:01;4.10;;;2.40;;
78856;SDS011;68207;50.078;19.936;2023-07-29T08:55:28;3.40;;;2.00;;
78856;SDS011;68207;50.078;19.936;2023-07-29T08:57:54;2.80;;;2.10;;
78856;SDS011;68207;50.078;19.936;2023-07-29T09:02:45;3.10;;;2.40;;
78856;SDS011;68207;50.078;19.936;2023-07-29T09:05:10;3.10;;;2.10;;
78856;SDS011;68207;50.078;19.936;2023-07-29T09:07:35;3.00;;;2.50;;
78856;SDS011;68207;50.078;19.936;2023-07-29T09:12:26;3.30;;;2.40;;
78856;SDS011;68207;50.078;19.936;2023-07-29T09:14:52;7.10;;;2.90;;
78856;SDS011;68207;50.078;19.936;2023-07-29T09:17:18;3.30;;;2.40;;
78856;SDS011;68207;50.078;19.936;2023-07-29T09:19:46;7.40;;;2.30;;
78856;SDS011;68207;50.078;19.936;2023-07-29T09:22:17;4.80;;;2.80;;
78856;SDS011;68207;50.078;19.936;2023-07-29T09:24:42;3.60;;;2.60;;
78856;SDS011;68207;50.078;19.936;2023-07-29T09:27:07;4.20;;;2.30;;
78856;SDS011;68207;50.078;19.936;2023-07-29T09:29:35;3.60;;;2.40;;
78856;SDS011;68207;50.078;19.936;2023-07-29T09:32:19;4.40;;;2.30;;
78856;SDS011;68207;50.078;19.936;2023-07-29T09:34:45;4.50;;;2.60;;
78856;SDS011;68207;50.078;19.936;2023-07-29T09:37:15;2.70;;;2.30;;
78856;SDS011;68207;50.078;19.936;2023-07-29T09:39:43;2.70;;;2.20;;
78856;SDS011;68207;50.078;19.936;2023-07-29T09:42:11;4.90;;;2.50;;
78856;SDS011;68207;50.078;19.936;2023-07-29T09:44:36;5.30;;;2.60;;
78856;SDS011;68207;50.078;19.936;2023-07-29T09:47:01;2.50;;;1.80;;
78856;SDS011;68207;50.078;19.936;2023-07-29T09:49:26;2.90;;;2.20;;
78856;SDS011;68207;50.078;19.936;2023-07-29T09:51:51;3.40;;;2.20;;
78856;SDS011;68207;50.078;19.936;2023-07-29T09:54:20;2.70;;;1.90;;
78856;SDS011;68207;50.078;19.936;2023-07-29T09:56:45;5.00;;;2.50;;
78856;SDS011;68207;50.078;19.936;2023-07-29T09:59:12;4.60;;;2.30;;
78856;SDS011;68207;50.078;19.936;2023-07-29T10:01:37;5.00;;;2.40;;
78856;SDS011;68207;50.078;19.936;2023-07-29T10:06:28;3.60;;;2.50;;
78856;SDS011;68207;50.078;19.936;2023-07-29T10:08:53;5.50;;;2.80;;
78856;SDS011;68207;50.078;19.936;2023-07-29T10:11:20;3.60;;;2.40;;
78856;SDS011;68207;50.078;19.936;2023-07-29T10:13:45;4.70;;;2.40;;
78856;SDS011;68207;50.078;19.936;2023-07-29T10:16:11;4.10;;;2.30;;
78856;SDS011;68207;50.078;19.936;2023-07-29T10:18:36;3.00;;;2.40;;
78856;SDS011;68207;50.078;19.936;2023-07-29T10:21:02;3.10;;;2.40;;
78856;SDS011;68207;50.078;19.936;2023-07-29T10:23:30;4.40;;;2.40;;
78856;SDS011;68207;50.078;19.936;2023-07-29T10:26:07;5.00;;;1.90;;
78856;SDS011;68207;50.078;19.936;2023-07-29T10:28:34;3.10;;;1.90;;
78856;SDS011;68207;50.078;19.936;2023-07-29T10:31:04;3.70;;;1.90;;
78856;SDS011;68207;50.078;19.936;2023-07-29T10:33:29;2.50;;;1.90;;
78856;SDS011;68207;50.078;19.936;2023-07-29T10:35:55;3.00;;;1.80;;
78856;SDS011;68207;50.078;19.936;2023-07-29T10:38:21;2.40;;;1.90;;
78856;SDS011;68207;50.078;19.936;2023-07-29T10:40:51;2.70;;;2.00;;
78856;SDS011;68207;50.078;19.936;2023-07-29T10:43:24;2.70;;;1.80;;
78856;SDS011;68207;50.078;19.936;2023-07-29T10:45:49;3.60;;;1.80;;
78856;SDS011;68207;50.078;19.936;2023-07-29T10:48:39;2.10;;;1.80;;
78856;SDS011;68207;50.078;19.936;2023-07-29T10:53:46;2.60;;;2.00;;
78856;SDS011;68207;50.078;19.936;2023-07-29T10:56:12;2.30;;;1.90;;
78856;SDS011;68207;50.078;19.936;2023-07-29T10:58:37;2.50;;;2.20;;
78856;SDS011;68207;50.078;19.936;2023-07-29T11:01:02;5.80;;;2.10;;
78856;SDS011;68207;50.078;19.936;2023-07-29T11:03:37;2.50;;;2.10;;
78856;SDS011;68207;50.078;19.936;2023-07-29T11:06:04;2.90;;;2.10;;
78856;SDS011;68207;50.078;19.936;2023-07-29T11:08:30;2.10;;;1.70;;
78856;SDS011;68207;50.078;19.936;2023-07-29T11:11:05;3.20;;;2.10;;
78856;SDS011;68207;50.078;19.936;2023-07-29T11:13:31;3.40;;;2.10;;
78856;SDS011;68207;50.078;19.936;2023-07-29T11:18:25;4.70;;;1.90;;
78856;SDS011;68207;50.078;19.936;2023-07-29T11:20:51;2.80;;;2.00;;
78856;SDS011;68207;50.078;19.936;2023-07-29T11:23:18;4.40;;;2.10;;
78856;SDS011;68207;50.078;19.936;2023-07-29T11:25:43;3.00;;;2.10;;
78856;SDS011;68207;50.078;19.936;2023-07-29T11:28:10;2.80;;;1.90;;
78856;SDS011;68207;50.078;19.936;2023-07-29T11:30:36;3.10;;;2.30;;
78856;SDS011;68207;50.078;19.936;2023-07-29T11:33:03;2.90;;;2.20;;
78856;SDS011;68207;50.078;19.936;2023-07-29T11:35:28;3.70;;;2.40;;
78856;SDS011;68207;50.078;19.936;2023-07-29T11:37:54;3.10;;;2.20;;
78856;SDS011;68207;50.078;19.936;2023-07-29T11:40:20;5.40;;;3.00;;
78856;SDS011;68207;50.078;19.936;2023-07-29T11:42:46;4.00;;;2.50;;
78856;SDS011;68207;50.078;19.936;2023-07-29T11:45:12;2.60;;;2.00;;
78856;SDS011;68207;50.078;19.936;2023-07-29T11:47:38;3.50;;;2.60;;
78856;SDS011;68207;50.078;19.936;2023-07-29T11:50:04;3.50;;;3.00;;
78856;SDS011;68207;50.078;19.936;2023-07-29T11:52:30;3.30;;;2.50;;
78856;SDS011;68207;50.078;19.936;2023-07-29T11:54:55;4.00;;;2.40;;
78856;SDS011;68207;50.078;19.936;2023-07-29T11:57:21;4.60;;;2.30;;
78856;SDS011;68207;50.078;19.936;2023-07-29T11:59:46;4.50;;;2.60;;
78856;SDS011;68207;50.078;19.936;2023-07-29T12:02:15;3.50;;;2.40;;
78856;SDS011;68207;50.078;19.936;2023-07-29T12:04:41;3.10;;;2.20;;
78856;SDS011;68207;50.078;19.936;2023-07-29T12:07:07;2.60;;;2.20;;
78856;SDS011;68207;50.078;19.936;2023-07-29T12:09:33;5.40;;;2.70;;
78856;SDS011;68207;50.078;19.936;2023-07-29T12:11:58;4.50;;;2.10;;
78856;SDS011;68207;50.078;19.936;2023-07-29T12:14:28;4.90;;;2.30;;
78856;SDS011;68207;50.078;19.936;2023-07-29T12:16:53;2.80;;;1.90;;
78856;SDS011;68207;50.078;19.936;2023-07-29T12:19:18;2.90;;;2.10;;
78856;SDS011;68207;50.078;19.936;2023-07-29T12:21:44;3.80;;;2.10;;
78856;SDS011;68207;50.078;19.936;2023-07-29T12:24:09;3.80;;;2.00;;
78856;SDS011;68207;50.078;19.936;2023-07-29T12:26:36;3.20;;;1.90;;
78856;SDS011;68207;50.078;19.936;2023-07-29T12:29:14;3.00;;;1.80;;
78856;SDS011;68207;50.078;19.936;2023-07-29T12:34:05;4.40;;;2.00;;
78856;SDS011;68207;50.078;19.936;2023-07-29T12:36:43;2.40;;;2.00;;
78856;SDS011;68207;50.078;19.936;2023-07-29T12:39:18;2.80;;;2.00;;
78856;SDS011;68207;50.078;19.936;2023-07-29T12:41:44;2.90;;;2.10;;
78856;SDS011;68207;50.078;19.936;2023-07-29T12:44:09;3.60;;;2.10;;
78856;SDS011;68207;50.078;19.936;2023-07-29T12:46:35;3.00;;;2.10;;
78856;SDS011;68207;50.078;19.936;2023-07-29T12:49:00;2.90;;;2.20;;
78856;SDS011;68207;50.078;19.936;2023-07-29T12:51:25;3.10;;;2.10;;
78856;SDS011;68207;50.078;19.936;2023-07-29T12:53:50;3.20;;;2.20;;
78856;SDS011;68207;50.078;19.936;2023-07-29T12:56:15;2.80;;;2.30;;
78856;SDS011;68207;50.078;19.936;2023-07-29T12:58:41;2.70;;;2.40;;
78856;SDS011;68207;50.078;19.936;2023-07-29T13:01:06;2.70;;;2.20;;
78856;SDS011;68207;50.078;19.936;2023-07-29T13:03:31;4.10;;;2.40;;
78856;SDS011;68207;50.078;19.936;2023-07-29T13:05:56;3.70;;;2.40;;
78856;SDS011;68207;50.078;19.936;2023-07-29T13:08:21;3.00;;;2.10;;
78856;SDS011;68207;50.078;19.936;2023-07-29T13:10:48;4.20;;;2.20;;
78856;SDS011;68207;50.078;19.936;2023-07-29T13:13:13;3.70;;;2.40;;
78856;SDS011;68207;50.078;19.936;2023-07-29T13:15:38;3.20;;;2.20;;
78856;SDS011;68207;50.078;19.936;2023-07-29T13:18:03;3.40;;;2.30;;
78856;SDS011;68207;50.078;19.936;2023-07-29T13:20:29;4.20;;;2.50;;
78856;SDS011;68207;50.078;19.936;2023-07-29T13:22:54;3.10;;;2.40;;
78856;SDS011;68207;50.078;19.936;2023-07-29T13:25:19;4.00;;;2.40;;
78856;SDS011;68207;50.078;19.936;2023-07-29T13:27:44;4.60;;;2.50;;
78856;SDS011;68207;50.078;19.936;2023-07-29T13:30:09;3.40;;;2.40;;
78856;SDS011;68207;50.078;19.936;2023-07-29T13:32:35;2.60;;;2.00;;
78856;SDS011;68207;50.078;19.936;2023-07-29T13:35:00;2.80;;;2.40;;
78856;SDS011;68207;50.078;19.936;2023-07-29T13:37:25;3.50;;;2.50;;
78856;SDS011;68207;50.078;19.936;2023-07-29T13:39:50;3.60;;;2.20;;
78856;SDS011;68207;50.078;19.936;2023-07-29T13:42:15;2.90;;;2.30;;
78856;SDS011;68207;50.078;19.936;2023-07-29T13:44:40;4.40;;;2.40;;
78856;SDS011;68207;50.078;19.936;2023-07-29T13:47:06;3.30;;;2.20;;
78856;SDS011;68207;50.078;19.936;2023-07-29T13:51:56;2.90;;;2.40;;
78856;SDS011;68207;50.078;19.936;2023-07-29T13:54:22;3.10;;;2.40;;
78856;SDS011;68207;50.078;19.936;2023-07-29T13:56:47;2.90;;;2.10;;
78856;SDS011;68207;50.078;19.936;2023-07-29T13:59:12;2.90;;;2.40;;
78856;SDS011;68207;50.078;19.936;2023-07-29T14:01:37;3.50;;;2.60;;
78856;SDS011;68207;50.078;19.936;2023-07-29T14:04:02;3.10;;;2.30;;
78856;SDS011;68207;50.078;19.936;2023-07-29T14:06:27;3.40;;;2.40;;
78856;SDS011;68207;50.078;19.936;2023-07-29T14:08:54;3.80;;;2.60;;
78856;SDS011;68207;50.078;19.936;2023-07-29T14:11:19;3.20;;;2.40;;
78856;SDS011;68207;50.078;19.936;2023-07-29T14:13:44;2.70;;;2.20;;
78856;SDS011;68207;50.078;19.936;2023-07-29T14:16:09;3.00;;;2.10;;
78856;SDS011;68207;50.078;19.936;2023-07-29T14:18:34;3.20;;;2.70;;
78856;SDS011;68207;50.078;19.936;2023-07-29T14:21:00;2.90;;;2.20;;
78856;SDS011;68207;50.078;19.936;2023-07-29T14:23:25;3.00;;;2.60;;
78856;SDS011;68207;50.078;19.936;2023-07-29T14:25:50;6.00;;;2.20;;
78856;SDS011;68207;50.078;19.936;2023-07-29T14:28:15;4.40;;;2.30;;
78856;SDS011;68207;50.078;19.936;2023-07-29T14:30:40;5.40;;;2.20;;
78856;SDS011;68207;50.078;19.936;2023-07-29T14:33:06;5.30;;;2.60;;
78856;SDS011;68207;50.078;19.936;2023-07-29T14:35:31;2.20;;;1.90;;
78856;SDS011;68207;50.078;19.936;2023-07-29T14:37:56;4.50;;;2.30;;
78856;SDS011;68207;50.078;19.936;2023-07-29T14:40:22;3.60;;;1.90;;
78856;SDS011;68207;50.078;19.936;2023-07-29T14:42:47;3.00;;;2.00;;
78856;SDS011;68207;50.078;19.936;2023-07-29T14:45:12;4.00;;;2.60;;
78856;SDS011;68207;50.078;19.936;2023-07-29T14:47:37;3.90;;;2.30;;
78856;SDS011;68207;50.078;19.936;2023-07-29T14:50:02;3.00;;;2.10;;
78856;SDS011;68207;50.078;19.936;2023-07-29T14:52:28;3.60;;;2.50;;
78856;SDS011;68207;50.078;19.936;2023-07-29T14:54:53;3.70;;;2.30;;
78856;SDS011;68207;50.078;19.936;2023-07-29T14:57:18;4.50;;;2.50;;
78856;SDS011;68207;50.078;19.936;2023-07-29T14:59:43;3.10;;;2.30;;